Airfield :
LOGIN :

Register | Disclaimer

   EN    FR    IT 

 










Legend :    VFR   Marginal VFR   IFR   Intensive IFR   Very Intensive IFR
Visi :
Ceiling :
>= 8 km
>= 3000ft
5 to 8 km
1000 to 3000 ft
1500m to 5 km
500 to 1000 ft
800 to 1500m
200 to 500 ft
< 800m
< 200 ft
Symbols :   Thunderstorms  Fog  Heavy snow  Heavy precipitations  Wind > 20 kt
SIGMETs :     Misc.  Thunderstorms  Icing  Turbulence  Mountain Waves  Volcanic Ashes







- Airport Elevation : 794 ft


LKCV - Čáslav Air Base

CURRENT METAR :
  • 220200Z 28012KT 7000 -RA OVC025 07/06 Q1023 NOSIG RMK WHT WHT

EXPIRED METARs :
  • 220100Z 29011KT 7000 RA BKN016 OVC023 07/06 Q1023 NOSIG RMK WHT WHT
  • 220000Z 26009KT 9999 -RA OVC024 07/05 Q1023 NOSIG RMK WHT WHT

TAF TAF LKCV
Valid from the 22 at 00:00 until the 23 at 00:00 UTC


212300Z 2200/2300 25012KT 9999 BKN027
TEMPO 2200/2209 7000 RA SCT015 BKN020
TEMPO 2202/2208 29015G25KT 4000 BR BKN012 OVC020
PROB40
TEMPO 2210/2217 04016G32KT
No reported NOTAMs for that airfield.



MET'MAP, your aeronautical weather chart ! - Copyright ORBIFLY December 2007 - Disclaimer

ORBIFLY MET'MAP TEAM :

Programming & Development : Alexandra Zaïnal
Concept & Development : Baudouin d'Aumeries
Co-Development & Prog : Marc-Olivier Méhu
Technical & hardware support : Manuel Goepfert

Contact : metmap@orbifly.com




SOURCES & CREDITS :

   NOAA